Terminal Aerodrome Forecast
Issued by NWS

Home | Current Version | Previous Version | Graphics & Text | Print | Product List | Glossary On
Versions: 1 2 3 4 5 6 7 8 9 10 11 12 13
544
FTUS43 KOAX 012328
TAFCDR
TAF
KCDR 012328Z 0200/0224 03010KT P6SM FEW200
     FM020200 VRB03KT P6SM FEW250
     FM021700 30007KT P6SM SCT250
     FM022000 34010KT P6SM VCSH BKN100=

USA.gov is the U.S. government's official web portal to all federal, state and local government web resources and services.